Alley Springs, Missouri
Current Conditions -  °F | °C
As of 10:28 AM on Thursday 18 Dec 2014 (Local Time) from KUNO Reporting Station
Haze Haze  
Wind Chill: 29°   Ceiling: 400
Heat Index: 33°   Visibility: 3mi
Dew Point: 31°   Wind: 5mph
Humidity: 92%   Direction: 140°SE
Pressure: 30.23"   Gusts: NA
Location:  37.1833°N, 91.4819°W
Report Text: KUNO 181628Z AUTO 14004KT 3SM BR OVC004 01/M01 A3023 RMK AO2 CIG 003V007 T00061006
Loading
Personal Weather Stations






























Interactive Weather Map New forecast layout! Learn more

10-Day Weather Forecast

Advertisements
Track Severe Weather on mobile